Time;durP1;ratioP1;P1;durP2;ratioP2;P2;SDS_P1;SDS_P2;PMS_P1;PMS_P2;Temp;Humidity;BMP_temperature;BMP_pressure;BME280_temperature;BME280_humidity;BME280_pressure;Samples;Min_cycle;Max_cycle;Signal;HPM_P1;HPM_P2
2021/06/18 00:00:01;;;;;;;66.20;21.60;;;16.40;99.90;;;;;;2095769;28;20032;-66
2021/06/18 00:01:02;;;;;;;54.25;19.83;;;16.40;99.90;;;;;;2103969;28;20552;-65
2021/06/18 00:02:03;;;;;;;52.20;19.35;;;16.40;99.90;;;;;;2103272;28;20046;-65
2021/06/18 00:03:04;;;;;;;58.88;18.48;;;16.40;99.90;;;;;;2111611;28;20062;-65
2021/06/18 00:04:05;;;;;;;57.60;19.38;;;16.40;99.90;;;;;;2111234;28;20031;-65
2021/06/18 00:05:09;;;;;;;55.88;19.27;;;16.40;99.90;;;;;;2103381;28;20481;-65
2021/06/18 00:06:10;;;;;;;52.13;18.90;;;16.40;99.90;;;;;;2103863;28;20107;-65
2021/06/18 00:07:11;;;;;;;53.35;18.45;;;16.40;99.90;;;;;;2098752;28;20024;-65
2021/06/18 00:08:11;;;;;;;54.60;18.77;;;16.40;99.90;;;;;;2095205;28;20036;-66
2021/06/18 00:09:12;;;;;;;54.42;17.73;;;16.40;99.90;;;;;;2104107;28;20024;-65
2021/06/18 00:10:15;;;;;;;47.63;17.90;;;16.40;99.90;;;;;;2106765;28;20023;-65
2021/06/18 00:11:16;;;;;;;60.40;19.77;;;16.40;99.90;;;;;;2111251;28;20008;-65
2021/06/18 00:12:17;;;;;;;64.07;20.05;;;16.40;99.90;;;;;;2099870;28;20391;-65
2021/06/18 00:13:18;;;;;;;57.83;20.60;;;16.40;99.90;;;;;;2092016;28;20066;-65
2021/06/18 00:14:18;;;;;;;70.72;21.42;;;16.40;99.90;;;;;;2097525;28;20154;-65
2021/06/18 00:15:19;;;;;;;59.15;20.55;;;16.40;99.90;;;;;;2097441;28;20516;-65
2021/06/18 00:16:20;;;;;;;67.03;21.35;;;16.40;99.90;;;;;;2098422;28;20020;-66
2021/06/18 00:17:20;;;;;;;60.95;21.63;;;16.40;99.90;;;;;;2098689;28;20021;-66
2021/06/18 00:18:21;;;;;;;69.60;22.25;;;16.40;99.90;;;;;;2089054;28;20079;-65
2021/06/18 00:19:22;;;;;;;66.80;21.48;;;16.50;99.90;;;;;;2097441;28;20064;-66
2021/06/18 00:20:22;;;;;;;68.45;23.60;;;16.40;99.90;;;;;;2097565;28;20016;-66
2021/06/18 00:21:23;;;;;;;68.50;23.33;;;16.50;99.90;;;;;;2095491;28;20044;-65
2021/06/18 00:22:24;;;;;;;62.40;22.35;;;16.50;99.90;;;;;;2089558;28;20028;-65
2021/06/18 00:23:24;;;;;;;67.00;23.20;;;16.50;99.90;;;;;;2089724;28;20029;-66
2021/06/18 00:24:25;;;;;;;61.95;22.63;;;16.50;99.90;;;;;;2098166;28;20032;-65
2021/06/18 00:25:26;;;;;;;75.25;24.00;;;16.40;99.90;;;;;;2097739;28;20392;-65
2021/06/18 00:26:26;;;;;;;60.30;22.17;;;16.50;99.90;;;;;;2098118;28;20029;-65
2021/06/18 00:27:27;;;;;;;64.55;22.85;;;16.50;99.90;;;;;;2094859;28;20021;-65
2021/06/18 00:28:28;;;;;;;69.68;22.77;;;16.50;99.90;;;;;;2097960;28;20686;-65
2021/06/18 00:29:28;;;;;;;68.18;23.45;;;16.50;99.90;;;;;;2093347;28;20162;-65
2021/06/18 00:30:29;;;;;;;79.50;24.98;;;16.50;99.90;;;;;;2092292;28;20033;-65
2021/06/18 00:31:30;;;;;;;69.90;23.65;;;16.50;99.90;;;;;;2098094;28;20017;-65
2021/06/18 00:32:30;;;;;;;66.03;23.73;;;16.50;99.90;;;;;;2097406;28;20495;-65
2021/06/18 00:33:31;;;;;;;69.70;22.15;;;16.50;99.90;;;;;;2093175;28;20025;-66
2021/06/18 00:34:32;;;;;;;76.38;24.58;;;16.50;99.90;;;;;;2090690;28;20036;-65
2021/06/18 00:35:33;;;;;;;70.38;22.85;;;16.50;99.90;;;;;;2101475;28;20019;-65
2021/06/18 00:36:34;;;;;;;70.65;23.35;;;16.50;99.90;;;;;;2092730;28;20480;-66
2021/06/18 00:37:35;;;;;;;52.67;22.08;;;16.50;99.90;;;;;;2097963;28;20019;-65
2021/06/18 00:38:36;;;;;;;62.80;23.35;;;16.50;99.90;;;;;;2090086;28;20872;-65
2021/06/18 00:39:37;;;;;;;60.17;23.40;;;16.50;99.90;;;;;;2090414;28;20469;-66
2021/06/18 00:40:38;;;;;;;57.53;22.92;;;16.50;99.90;;;;;;2091801;28;20029;-66
2021/06/18 00:41:38;;;;;;;55.20;21.88;;;16.50;99.90;;;;;;2100812;28;20024;-65
2021/06/18 00:42:39;;;;;;;57.35;22.73;;;16.50;99.90;;;;;;2105768;28;20096;-65
2021/06/18 00:43:39;;;;;;;49.90;22.42;;;16.50;99.90;;;;;;2097892;28;20020;-65
2021/06/18 00:44:40;;;;;;;57.75;23.08;;;16.60;99.90;;;;;;2097966;28;20025;-65
2021/06/18 00:45:41;;;;;;;60.28;22.98;;;16.60;99.90;;;;;;2098271;28;20028;-65
2021/06/18 00:46:43;;;;;;;53.13;23.27;;;16.50;99.90;;;;;;2097457;28;20025;-65
2021/06/18 00:47:48;;;;;;;;;;;16.60;99.90;;;;;;2095919;28;20408;-65
2021/06/18 00:48:50;;;;;;;52.97;22.27;;;16.60;99.90;;;;;;2089679;28;19909;-66
2021/06/18 00:49:52;;;;;;;58.47;23.10;;;16.50;99.90;;;;;;2090748;28;20438;-65
2021/06/18 00:50:53;;;;;;;58.17;23.38;;;16.60;99.90;;;;;;2105866;28;20024;-65
2021/06/18 00:51:56;;;;;;;54.50;23.35;;;16.50;99.90;;;;;;2092612;28;20040;-65
2021/06/18 00:52:58;;;;;;;54.38;22.35;;;16.50;99.90;;;;;;2097352;28;20056;-65
2021/06/18 00:53:58;;;;;;;53.42;22.75;;;16.50;99.90;;;;;;2088638;28;20532;-65
2021/06/18 00:55:00;;;;;;;59.67;24.50;;;16.50;99.90;;;;;;2088677;28;20044;-65
2021/06/18 00:56:01;;;;;;;64.90;25.52;;;16.60;99.90;;;;;;2095885;28;20032;-65
2021/06/18 00:57:02;;;;;;;55.08;24.83;;;16.60;99.90;;;;;;2100945;28;20043;-65
2021/06/18 00:58:03;;;;;;;71.97;26.20;;;16.60;99.90;;;;;;2100801;28;20032;-65
2021/06/18 00:59:04;;;;;;;56.08;24.70;;;16.60;99.90;;;;;;2103845;28;20053;-65
2021/06/18 01:00:07;;;;;;;58.40;24.25;;;16.50;99.90;;;;;;2105616;28;20099;-65
2021/06/18 01:01:07;;;;;;;58.70;24.77;;;16.50;99.90;;;;;;2098051;28;20029;-65
2021/06/18 01:02:08;;;;;;;65.25;26.95;;;16.60;99.90;;;;;;2100493;28;20044;-65
2021/06/18 01:03:09;;;;;;;68.78;25.35;;;16.50;99.90;;;;;;2095180;28;20104;-65
2021/06/18 01:04:10;;;;;;;67.90;26.45;;;16.50;99.90;;;;;;2090918;28;20021;-65
2021/06/18 01:05:13;;;;;;;66.15;25.75;;;16.60;99.90;;;;;;2090402;28;20605;-65
2021/06/18 01:06:20;;;;;;;64.63;26.33;;;16.50;99.90;;;;;;2089652;28;20017;-65
2021/06/18 01:07:33;;;;;;;72.68;27.60;;;16.50;99.90;;;;;;2094608;28;20449;-65
2021/06/18 01:08:46;;;;;;;64.20;25.02;;;16.50;99.90;;;;;;2097868;28;20353;-64
2021/06/18 01:10:01;;;;;;;67.53;27.63;;;16.60;99.90;;;;;;2097796;28;20472;-65
2021/06/18 01:11:31;;;;;;;66.47;25.35;;;16.50;99.90;;;;;;2105647;28;20033;-65
2021/06/18 01:12:39;;;;;;;66.97;25.55;;;16.50;99.90;;;;;;2101840;28;20100;-64
2021/06/18 01:13:51;;;;;;;65.40;26.23;;;16.50;99.90;;;;;;2090226;28;20504;-65
2021/06/18 01:15:05;;;;;;;;;;;16.50;99.90;;;;;;2090126;28;20021;-63
2021/06/18 01:16:14;;;;;;;66.63;25.45;;;16.50;99.90;;;;;;2097011;28;19904;-64
2021/06/18 01:17:22;;;;;;;72.47;26.80;;;16.50;99.90;;;;;;2096028;28;20514;-63
2021/06/18 01:18:28;;;;;;;65.55;25.98;;;16.50;99.90;;;;;;2089923;28;20100;-64
2021/06/18 01:19:53;;;;;;;66.88;26.48;;;16.50;99.90;;;;;;2089469;28;20083;-64
2021/06/18 01:21:09;;;;;;;66.03;25.35;;;16.50;99.90;;;;;;2100311;28;20047;-64
2021/06/18 01:22:14;;;;;;;73.28;27.20;;;16.50;99.90;;;;;;2095397;28;20020;-64
2021/06/18 01:23:29;;;;;;;65.88;26.73;;;16.50;99.90;;;;;;2089348;28;20054;-62
2021/06/18 01:24:47;;;;;;;73.70;27.63;;;16.50;99.90;;;;;;2088961;28;20404;-63
2021/06/18 01:25:56;;;;;;;78.28;27.27;;;16.50;99.90;;;;;;2094897;28;20099;-62
2021/06/18 01:27:01;;;;;;;70.45;27.65;;;16.50;99.90;;;;;;2097801;28;20086;-62
2021/06/18 01:28:20;;;;;;;74.93;27.65;;;16.50;99.90;;;;;;2097845;28;20065;-62
2021/06/18 01:29:23;;;;;;;67.10;26.33;;;16.50;99.90;;;;;;2092448;28;20028;-61
2021/06/18 01:30:26;;;;;;;71.00;27.25;;;16.50;99.90;;;;;;2090399;28;20009;-62
2021/06/18 01:31:36;;;;;;;75.90;28.48;;;16.50;99.90;;;;;;2094145;28;20123;-62
2021/06/18 01:32:52;;;;;;;71.95;27.63;;;16.50;99.90;;;;;;2088739;28;20060;-62
2021/06/18 01:34:21;;;;;;;66.25;26.20;;;16.50;99.90;;;;;;2088412;28;20029;-62
2021/06/18 01:35:24;;;;;;;58.03;24.95;;;16.50;99.90;;;;;;2095610;28;20260;-62
2021/06/18 01:36:26;;;;;;;64.60;25.52;;;16.50;99.90;;;;;;2107618;28;20115;-62
2021/06/18 01:37:30;;;;;;;65.15;27.05;;;16.50;99.90;;;;;;2105143;28;20031;-62
2021/06/18 01:38:39;;;;;;;61.63;25.70;;;16.50;99.90;;;;;;2098835;28;20768;-62
2021/06/18 01:39:41;;;;;;;61.55;25.60;;;16.50;99.90;;;;;;2096137;28;20024;-62
2021/06/18 01:40:44;;;;;;;69.43;26.42;;;16.50;99.90;;;;;;2088952;28;20052;-62
2021/06/18 01:41:49;;;;;;;59.28;24.80;;;16.50;99.90;;;;;;2100639;28;20023;-62
2021/06/18 01:42:50;;;;;;;60.63;24.70;;;16.50;99.90;;;;;;2088709;28;20039;-62
2021/06/18 01:43:53;;;;;;;49.97;24.05;;;16.50;99.90;;;;;;2087958;28;20021;-62
2021/06/18 01:44:56;;;;;;;57.55;24.30;;;16.50;99.90;;;;;;2101928;28;20038;-62
2021/06/18 01:45:58;;;;;;;63.05;24.52;;;16.40;99.90;;;;;;2090790;28;20058;-63
2021/06/18 01:46:59;;;;;;;;;;;16.40;99.90;;;;;;2089053;28;20056;-62
2021/06/18 01:48:04;;;;;;;64.40;24.35;;;16.50;99.90;;;;;;2090973;28;19995;-62
2021/06/18 01:49:08;;;;;;;53.30;23.45;;;16.50;99.90;;;;;;2095541;28;20017;-63
2021/06/18 01:50:12;;;;;;;52.65;23.95;;;16.50;99.90;;;;;;2094355;28;20028;-63
2021/06/18 01:51:14;;;;;;;51.35;23.90;;;16.50;99.90;;;;;;2089473;28;20048;-63
2021/06/18 01:52:17;;;;;;;51.97;23.48;;;16.50;99.90;;;;;;2096029;28;20028;-62
2021/06/18 01:53:20;;;;;;;52.15;22.85;;;16.50;99.90;;;;;;2094031;28;20040;-62
2021/06/18 01:54:27;;;;;;;47.72;21.13;;;16.50;99.90;;;;;;2089069;28;20488;-62
2021/06/18 01:55:29;;;;;;;50.80;23.08;;;16.50;99.90;;;;;;2089942;28;20028;-61
2021/06/18 01:56:32;;;;;;;46.17;21.60;;;16.50;99.90;;;;;;2089273;28;20116;-62
2021/06/18 01:57:36;;;;;;;47.20;23.80;;;16.50;99.90;;;;;;2089376;28;20029;-62
2021/06/18 01:58:40;;;;;;;50.60;21.83;;;16.50;99.90;;;;;;2091863;28;20021;-62
2021/06/18 01:59:42;;;;;;;42.65;21.25;;;16.50;99.90;;;;;;2097429;28;20025;-62
2021/06/18 02:00:49;;;;;;;;;;;16.50;99.90;;;;;;2104287;28;20028;-61
2021/06/18 02:01:51;;;;;;;47.30;20.63;;;16.50;99.90;;;;;;2102162;28;20282;-62
2021/06/18 02:02:52;;;;;;;47.17;20.17;;;16.50;99.90;;;;;;2089196;28;20021;-62
2021/06/18 02:03:53;;;;;;;45.40;20.92;;;16.50;99.90;;;;;;2093010;28;20028;-62
2021/06/18 02:04:55;;;;;;;47.50;22.10;;;16.50;99.90;;;;;;2089300;28;20506;-62
2021/06/18 02:06:02;;;;;;;44.35;20.77;;;16.50;99.90;;;;;;2096410;28;20669;-62
2021/06/18 02:07:04;;;;;;;42.20;20.00;;;16.50;99.90;;;;;;2091609;28;20029;-62
2021/06/18 02:08:07;;;;;;;39.58;20.25;;;16.50;99.90;;;;;;2105139;28;20024;-62
2021/06/18 02:09:09;;;;;;;41.88;20.83;;;16.50;99.90;;;;;;2099184;28;20512;-62
2021/06/18 02:10:11;;;;;;;42.92;21.00;;;16.50;99.90;;;;;;2096519;28;20020;-62
2021/06/18 02:11:12;;;;;;;;;;;16.50;99.90;;;;;;2094915;28;20090;-62
2021/06/18 02:12:16;;;;;;;39.67;19.20;;;16.50;99.90;;;;;;2089147;28;20371;-61
2021/06/18 02:13:18;;;;;;;42.05;18.58;;;16.50;99.90;;;;;;2089508;28;20801;-62
2021/06/18 02:14:20;;;;;;;;;;;16.50;99.90;;;;;;2097716;28;20024;-62
2021/06/18 02:15:21;;;;;;;37.58;18.98;;;16.50;99.90;;;;;;2096857;28;19905;-61
2021/06/18 02:16:25;;;;;;;36.17;18.80;;;16.50;99.90;;;;;;2097492;28;20494;-61
2021/06/18 02:17:27;;;;;;;44.10;20.15;;;16.50;99.90;;;;;;2097105;28;20032;-62
2021/06/18 02:18:31;;;;;;;40.95;18.15;;;16.50;99.90;;;;;;2097116;28;20058;-62
2021/06/18 02:19:35;;;;;;;38.42;19.55;;;16.50;99.90;;;;;;2089052;28;20116;-63
2021/06/18 02:20:37;;;;;;;34.83;17.85;;;16.50;99.90;;;;;;2091693;28;20484;-63
2021/06/18 02:21:39;;;;;;;37.38;18.60;;;16.50;99.90;;;;;;2096882;28;20748;-64
2021/06/18 02:22:41;;;;;;;38.75;18.50;;;16.50;99.90;;;;;;2095025;28;20025;-62
2021/06/18 02:23:41;;;;;;;;;;;16.50;99.90;;;;;;2091627;28;20545;-62
2021/06/18 02:24:43;;;;;;;36.15;18.13;;;16.50;99.90;;;;;;2096989;28;19911;-62
2021/06/18 02:25:46;;;;;;;34.00;17.85;;;16.60;99.90;;;;;;2096850;28;20023;-62
2021/06/18 02:26:47;;;;;;;36.35;17.80;;;16.50;99.90;;;;;;2095127;28;20097;-62
2021/06/18 02:27:49;;;;;;;40.63;18.35;;;16.50;99.90;;;;;;2091642;28;20067;-63
2021/06/18 02:28:49;;;;;;;41.65;18.80;;;16.50;99.90;;;;;;2094361;28;20399;-62
2021/06/18 02:29:50;;;;;;;34.92;17.35;;;16.50;99.90;;;;;;2105543;28;20012;-62
2021/06/18 02:30:51;;;;;;;36.38;17.25;;;16.50;99.90;;;;;;2099302;28;20590;-62
2021/06/18 02:31:56;;;;;;;33.40;16.83;;;16.60;99.90;;;;;;2089225;28;20056;-63
2021/06/18 02:32:58;;;;;;;32.75;17.08;;;16.60;99.90;;;;;;2090126;28;20025;-63
2021/06/18 02:33:59;;;;;;;30.15;16.95;;;16.60;99.90;;;;;;2099474;28;20486;-62
2021/06/18 02:35:01;;;;;;;33.05;15.88;;;16.60;99.90;;;;;;2099568;28;20373;-62
2021/06/18 02:36:03;;;;;;;;;;;16.50;99.90;;;;;;2095281;28;20020;-62
2021/06/18 02:37:05;;;;;;;25.50;14.55;;;16.60;99.90;;;;;;2090804;28;19908;-61
2021/06/18 02:38:09;;;;;;;33.33;16.20;;;16.60;99.90;;;;;;2096185;28;20071;-62
2021/06/18 02:39:12;;;;;;;34.85;15.27;;;16.60;99.90;;;;;;2088369;28;20033;-62
2021/06/18 02:40:13;;;;;;;31.08;15.30;;;16.50;99.90;;;;;;2090075;28;20583;-62
2021/06/18 02:41:13;;;;;;;27.42;14.38;;;16.60;99.90;;;;;;2092567;28;20035;-62
2021/06/18 02:42:15;;;;;;;30.65;15.38;;;16.60;99.90;;;;;;2093833;28;20029;-63
2021/06/18 02:43:16;;;;;;;31.38;15.13;;;16.50;99.90;;;;;;2096576;28;20024;-63
2021/06/18 02:44:16;;;;;;;28.95;14.52;;;16.60;99.90;;;;;;2096929;28;20031;-63
2021/06/18 02:45:17;;;;;;;26.00;13.80;;;16.60;99.90;;;;;;2091518;28;20022;-63
2021/06/18 02:46:44;;;;;;;27.30;14.23;;;16.60;99.90;;;;;;2093747;28;20020;-63
2021/06/18 02:48:12;;;;;;;31.73;15.45;;;16.50;99.90;;;;;;2100532;28;20061;-62
2021/06/18 02:49:15;;;;;;;30.02;14.13;;;16.60;99.90;;;;;;2097620;28;20470;-62
2021/06/18 02:51:14;;;;;;;27.38;14.48;;;16.50;99.90;;;;;;2101120;28;20426;-62
2021/06/18 02:52:26;;;;;;;31.08;14.18;;;16.60;99.90;;;;;;2077325;28;20112;-62
2021/06/18 02:53:56;;;;;;;23.90;13.23;;;16.50;99.90;;;;;;2095695;28;20057;-63
2021/06/18 02:55:16;;;;;;;24.60;14.23;;;16.50;99.90;;;;;;2104179;28;20035;-63
2021/06/18 02:56:38;;;;;;;24.55;13.60;;;16.60;99.90;;;;;;2088277;28;20021;-62
2021/06/18 02:58:16;;;;;;;23.10;12.75;;;16.50;99.90;;;;;;2095766;28;20028;-62
2021/06/18 02:59:31;;;;;;;24.48;13.27;;;16.60;99.90;;;;;;2077764;28;20021;-63
2021/06/18 03:00:33;;;;;;;27.25;13.90;;;16.60;99.90;;;;;;2093544;28;20066;-64
2021/06/18 03:01:40;;;;;;;23.38;12.15;;;16.60;99.90;;;;;;2088797;28;20523;-62
2021/06/18 03:02:49;;;;;;;30.05;13.57;;;16.50;99.90;;;;;;2095321;28;20032;-62
2021/06/18 03:03:54;;;;;;;24.42;13.65;;;16.50;99.90;;;;;;2092534;28;20391;-62
2021/06/18 03:04:56;;;;;;;25.35;13.63;;;16.50;99.90;;;;;;2091679;28;20034;-63
2021/06/18 03:06:01;;;;;;;24.30;12.27;;;16.60;99.90;;;;;;2091590;28;20577;-63
2021/06/18 03:07:12;;;;;;;19.70;11.88;;;16.60;99.90;;;;;;2090995;28;20703;-63
2021/06/18 03:08:15;;;;;;;30.15;12.85;;;16.50;99.90;;;;;;2096528;28;20025;-63
2021/06/18 03:09:22;;;;;;;21.10;12.25;;;16.60;99.90;;;;;;2096055;28;20023;-62
2021/06/18 03:10:27;;;;;;;21.30;12.23;;;16.60;99.90;;;;;;2090986;28;20511;-62
2021/06/18 03:11:35;;;;;;;21.42;12.18;;;16.60;99.90;;;;;;2089125;28;20122;-62
2021/06/18 03:12:41;;;;;;;23.30;12.13;;;16.60;99.90;;;;;;2098448;28;20038;-63
2021/06/18 03:13:46;;;;;;;25.15;11.95;;;16.50;99.90;;;;;;2103847;28;20020;-62
2021/06/18 03:14:48;;;;;;;26.08;11.65;;;16.50;99.90;;;;;;2097065;28;20027;-63
2021/06/18 03:15:49;;;;;;;19.02;12.02;;;16.60;99.90;;;;;;2096642;28;20032;-62
2021/06/18 03:16:56;;;;;;;21.98;11.70;;;16.50;99.90;;;;;;2094843;28;20103;-62
2021/06/18 03:17:59;;;;;;;27.83;12.70;;;16.50;99.90;;;;;;2086275;28;20021;-62
2021/06/18 03:19:04;;;;;;;22.65;11.90;;;16.50;99.90;;;;;;2083606;28;20025;-62
2021/06/18 03:20:09;;;;;;;25.75;12.95;;;16.60;99.90;;;;;;2096379;28;20028;-62
2021/06/18 03:21:12;;;;;;;25.42;13.18;;;16.60;99.90;;;;;;2089398;28;20492;-63
2021/06/18 03:22:15;;;;;;;23.98;12.85;;;16.60;99.90;;;;;;2089773;28;20066;-62
2021/06/18 03:23:18;;;;;;;27.70;13.13;;;16.60;99.90;;;;;;2089314;28;20104;-62
2021/06/18 03:24:19;;;;;;;22.95;12.57;;;16.60;99.90;;;;;;2092958;28;20154;-61
2021/06/18 03:25:21;;;;;;;23.42;12.65;;;16.60;99.90;;;;;;2096049;28;20020;-62
2021/06/18 03:26:22;;;;;;;25.05;12.63;;;16.60;99.90;;;;;;2095841;28;20024;-62
2021/06/18 03:27:24;;;;;;;22.38;12.38;;;16.60;99.90;;;;;;2094802;28;20021;-63
2021/06/18 03:28:27;;;;;;;21.20;12.30;;;16.50;99.90;;;;;;2093521;28;20028;-62
2021/06/18 03:29:30;;;;;;;25.90;12.07;;;16.60;99.90;;;;;;2095808;28;20070;-63
2021/06/18 03:30:33;;;;;;;20.85;12.15;;;16.60;99.90;;;;;;2088665;28;20025;-62
2021/06/18 03:31:35;;;;;;;25.65;13.13;;;16.60;99.90;;;;;;2094828;28;20086;-63
2021/06/18 03:32:39;;;;;;;26.70;13.52;;;16.60;99.90;;;;;;2087576;28;20468;-62
2021/06/18 03:33:42;;;;;;;30.52;13.55;;;16.60;99.90;;;;;;2094821;28;20024;-64
2021/06/18 03:34:43;;;;;;;23.20;12.98;;;16.60;99.90;;;;;;2090525;28;20128;-63
2021/06/18 03:35:46;;;;;;;25.42;12.85;;;16.60;99.90;;;;;;2096601;28;20044;-63
2021/06/18 03:36:48;;;;;;;22.25;12.95;;;16.60;99.90;;;;;;2102292;28;20502;-64
2021/06/18 03:37:49;;;;;;;26.20;12.50;;;16.60;99.90;;;;;;2105440;28;20028;-64
2021/06/18 03:38:52;;;;;;;28.48;12.95;;;16.60;99.90;;;;;;2090473;28;20028;-64
2021/06/18 03:39:53;;;;;;;24.08;12.75;;;16.60;99.90;;;;;;2089378;28;20024;-63
2021/06/18 03:40:54;;;;;;;24.30;12.68;;;16.60;99.90;;;;;;2088304;28;20025;-63
2021/06/18 03:41:56;;;;;;;24.98;13.00;;;16.60;99.90;;;;;;2089797;28;20069;-63
2021/06/18 03:42:57;;;;;;;19.45;12.27;;;16.60;99.90;;;;;;2095983;28;20028;-63
2021/06/18 03:43:58;;;;;;;24.08;13.50;;;16.60;99.90;;;;;;2096170;28;20028;-63
2021/06/18 03:45:01;;;;;;;25.55;13.23;;;16.60;99.90;;;;;;2095118;28;20017;-64
2021/06/18 03:46:05;;;;;;;25.67;13.75;;;16.60;99.90;;;;;;2096375;28;20024;-64
2021/06/18 03:47:06;;;;;;;22.70;12.82;;;16.60;99.90;;;;;;2096092;28;20096;-63
2021/06/18 03:48:13;;;;;;;23.80;13.77;;;16.60;99.90;;;;;;2090576;28;20017;-63
2021/06/18 03:49:15;;;;;;;22.17;12.85;;;16.60;99.90;;;;;;2097837;28;20067;-63
2021/06/18 03:50:19;;;;;;;26.67;13.93;;;16.60;99.90;;;;;;2097256;28;20103;-63
2021/06/18 03:51:20;;;;;;;24.17;13.57;;;16.60;99.90;;;;;;2097928;28;20024;-64
2021/06/18 03:52:21;;;;;;;24.13;13.30;;;16.60;99.90;;;;;;2092364;28;20082;-64
2021/06/18 03:53:22;;;;;;;25.35;13.27;;;16.60;99.90;;;;;;2090289;28;20067;-65
2021/06/18 03:54:23;;;;;;;24.67;13.63;;;16.60;99.90;;;;;;2081353;28;20045;-64
2021/06/18 03:55:24;;;;;;;21.80;12.25;;;16.60;99.90;;;;;;2093895;28;20086;-65
2021/06/18 03:56:25;;;;;;;27.67;13.23;;;16.60;99.90;;;;;;2090484;28;20075;-64
2021/06/18 03:57:25;;;;;;;32.90;14.38;;;16.60;99.90;;;;;;2097113;28;20019;-64
2021/06/18 03:58:26;;;;;;;25.77;13.93;;;16.60;99.90;;;;;;2098148;28;20507;-63
2021/06/18 03:59:29;;;;;;;25.75;13.60;;;16.60;99.90;;;;;;2098603;28;20028;-64
2021/06/18 04:00:36;;;;;;;27.42;14.50;;;16.60;99.90;;;;;;2098174;28;20021;-63
2021/06/18 04:01:38;;;;;;;24.92;13.50;;;16.60;99.90;;;;;;2096366;28;20075;-63
2021/06/18 04:02:39;;;;;;;21.80;13.10;;;16.60;99.90;;;;;;2091195;28;20032;-63
2021/06/18 04:03:44;;;;;;;25.10;14.00;;;16.60;99.90;;;;;;2091711;28;20650;-64
2021/06/18 04:04:47;;;;;;;22.45;12.73;;;16.60;99.90;;;;;;2090078;28;20032;-64
2021/06/18 04:05:50;;;;;;;24.02;12.65;;;16.60;99.90;;;;;;2096204;28;20108;-64
2021/06/18 04:06:51;;;;;;;21.10;12.30;;;16.60;99.90;;;;;;2098097;28;20016;-64
2021/06/18 04:07:53;;;;;;;25.55;13.02;;;16.60;99.90;;;;;;2098060;28;20974;-64
2021/06/18 04:08:55;;;;;;;;;;;16.60;99.90;;;;;;2097286;28;20082;-64
2021/06/18 04:09:56;;;;;;;23.42;12.20;;;16.60;99.90;;;;;;2089968;28;19904;-64
2021/06/18 04:10:57;;;;;;;24.98;12.90;;;16.60;99.90;;;;;;2089667;28;20029;-64
2021/06/18 04:12:00;;;;;;;23.50;13.35;;;16.60;99.90;;;;;;2093131;28;20746;-64
2021/06/18 04:13:02;;;;;;;22.33;13.02;;;16.60;99.90;;;;;;2097564;28;20078;-64
2021/06/18 04:14:03;;;;;;;22.38;12.77;;;16.60;99.90;;;;;;2095303;28;20021;-64
2021/06/18 04:15:05;;;;;;;25.23;12.77;;;16.60;99.90;;;;;;2096862;28;20036;-65
2021/06/18 04:16:10;;;;;;;21.60;11.60;;;16.60;99.90;;;;;;2089783;28;20353;-64
2021/06/18 04:17:11;;;;;;;26.38;12.40;;;16.60;99.90;;;;;;2089449;28;20508;-66
2021/06/18 04:18:12;;;;;;;27.25;12.32;;;16.60;99.90;;;;;;2090052;28;20019;-65
2021/06/18 04:19:13;;;;;;;25.33;13.07;;;16.60;99.90;;;;;;2093832;28;20035;-65
2021/06/18 04:20:15;;;;;;;24.95;12.30;;;16.60;99.90;;;;;;2090989;28;20275;-66
2021/06/18 04:21:19;;;;;;;26.27;12.68;;;16.60;99.90;;;;;;2095576;28;20020;-64
2021/06/18 04:22:29;;;;;;;22.55;12.20;;;16.60;99.90;;;;;;2094039;28;20396;-65
2021/06/18 04:23:29;;;;;;;24.25;13.57;;;16.60;99.90;;;;;;2097558;28;20028;-65
2021/06/18 04:24:31;;;;;;;22.33;11.93;;;16.60;99.90;;;;;;2098369;28;20031;-64
2021/06/18 04:25:32;;;;;;;24.55;12.38;;;16.60;99.90;;;;;;2097614;28;20016;-64
2021/06/18 04:26:32;;;;;;;24.63;12.60;;;16.60;99.90;;;;;;2098462;28;20788;-64
2021/06/18 04:27:34;;;;;;;25.50;12.23;;;16.60;99.90;;;;;;2091392;28;20067;-64
2021/06/18 04:28:36;;;;;;;20.50;11.65;;;16.60;99.90;;;;;;2089907;28;20025;-65
2021/06/18 04:29:36;;;;;;;21.70;10.40;;;16.60;99.90;;;;;;2092947;28;20031;-64
2021/06/18 04:30:37;;;;;;;21.35;11.77;;;16.60;99.90;;;;;;2093528;28;20025;-65
2021/06/18 04:31:38;;;;;;;24.00;11.48;;;16.60;99.90;;;;;;2097909;28;20404;-65
2021/06/18 04:32:40;;;;;;;21.02;10.85;;;16.60;99.90;;;;;;2098327;28;20104;-65
2021/06/18 04:33:40;;;;;;;19.48;10.32;;;16.60;99.90;;;;;;2097477;28;20020;-65
2021/06/18 04:34:41;;;;;;;19.23;10.35;;;16.60;99.90;;;;;;2095699;28;22526;-65
2021/06/18 04:35:42;;;;;;;15.40;9.73;;;16.60;99.90;;;;;;2097845;28;20798;-66
2021/06/18 04:36:43;;;;;;;19.52;11.00;;;16.60;99.90;;;;;;2097031;28;20025;-66
2021/06/18 04:37:43;;;;;;;18.88;10.55;;;16.60;99.90;;;;;;2097356;28;20025;-65
2021/06/18 04:38:44;;;;;;;22.42;10.63;;;16.60;99.90;;;;;;2096796;28;20016;-65
2021/06/18 04:39:45;;;;;;;17.33;9.40;;;16.60;99.90;;;;;;2097322;28;20020;-65
2021/06/18 04:40:45;;;;;;;21.13;10.27;;;16.60;99.90;;;;;;2097956;28;20858;-66
2021/06/18 04:41:46;;;;;;;18.58;10.57;;;16.60;99.90;;;;;;2090441;28;20451;-65
2021/06/18 04:42:47;;;;;;;18.58;9.43;;;16.50;99.90;;;;;;2088797;28;20025;-65
2021/06/18 04:43:47;;;;;;;16.63;9.80;;;16.60;99.90;;;;;;2087911;28;20631;-65
2021/06/18 04:44:48;;;;;;;19.30;9.90;;;16.50;99.90;;;;;;2092139;28;20507;-64
2021/06/18 04:45:49;;;;;;;19.55;9.98;;;16.60;99.90;;;;;;2106029;28;20476;-65
2021/06/18 04:46:50;;;;;;;15.65;8.80;;;16.50;99.90;;;;;;2101630;28;20692;-65
2021/06/18 04:47:51;;;;;;;18.77;9.40;;;16.60;99.90;;;;;;2092377;28;20024;-65
2021/06/18 04:48:51;;;;;;;17.05;9.05;;;16.50;99.90;;;;;;2093656;28;20029;-66
2021/06/18 04:49:52;;;;;;;13.80;8.65;;;16.50;99.90;;;;;;2089125;28;20586;-66
2021/06/18 04:50:53;;;;;;;20.05;8.43;;;16.50;99.90;;;;;;2096604;28;20025;-67
2021/06/18 04:51:53;;;;;;;14.90;7.47;;;16.50;99.90;;;;;;2095323;28;20024;-67
2021/06/18 04:52:54;;;;;;;19.55;7.43;;;16.50;99.90;;;;;;2089006;28;20029;-67
2021/06/18 04:53:56;;;;;;;11.50;6.63;;;16.50;99.90;;;;;;2092760;28;20078;-67
2021/06/18 04:55:01;;;;;;;13.05;6.88;;;16.50;99.90;;;;;;2089956;28;20024;-67
2021/06/18 04:56:03;;;;;;;13.20;7.50;;;16.50;99.90;;;;;;2088622;28;20039;-67
2021/06/18 04:57:04;;;;;;;15.77;7.20;;;16.50;99.90;;;;;;2095044;28;20604;-67
2021/06/18 04:58:05;;;;;;;12.65;6.15;;;16.50;99.90;;;;;;2105795;28;20127;-67
2021/06/18 04:59:06;;;;;;;25.63;6.97;;;16.50;99.90;;;;;;2099382;28;20028;-71
2021/06/18 05:00:08;;;;;;;15.88;6.45;;;16.50;99.90;;;;;;2097741;28;20738;-71
2021/06/18 05:01:09;;;;;;;18.95;6.78;;;16.50;99.90;;;;;;2093581;28;20713;-69
2021/06/18 05:02:10;;;;;;;25.50;7.07;;;16.40;99.90;;;;;;2086695;28;20053;-71
2021/06/18 05:03:10;;;;;;;14.93;5.70;;;16.40;99.90;;;;;;2097739;28;20047;-70
2021/06/18 05:04:11;;;;;;;12.85;5.72;;;16.40;99.90;;;;;;2095570;28;20056;-69
2021/06/18 05:05:12;;;;;;;12.30;6.10;;;16.50;99.90;;;;;;2088546;28;20539;-69
2021/06/18 05:06:12;;;;;;;14.63;6.30;;;16.50;99.90;;;;;;2096962;28;20023;-68
2021/06/18 05:07:13;;;;;;;11.63;5.20;;;16.40;99.90;;;;;;2088766;28;20025;-66
2021/06/18 05:08:14;;;;;;;10.57;5.13;;;16.40;99.90;;;;;;2080786;28;20673;-66
2021/06/18 05:09:14;;;;;;;12.18;4.88;;;16.40;99.90;;;;;;2088509;28;20021;-65
2021/06/18 05:10:15;;;;;;;10.90;5.45;;;16.40;99.90;;;;;;2093419;28;20376;-65
2021/06/18 05:11:16;;;;;;;12.23;5.68;;;16.40;99.90;;;;;;2097764;28;20342;-65
2021/06/18 05:12:17;;;;;;;7.90;4.72;;;16.40;99.90;;;;;;2095720;28;20071;-65
2021/06/18 05:13:17;;;;;;;8.95;4.60;;;16.40;99.90;;;;;;2096380;28;20055;-65
2021/06/18 05:14:18;;;;;;;10.65;4.45;;;16.40;99.90;;;;;;2097132;28;20105;-65
2021/06/18 05:15:19;;;;;;;9.23;4.40;;;16.50;99.90;;;;;;2097326;28;20020;-65
2021/06/18 05:16:20;;;;;;;6.30;3.58;;;16.40;99.90;;;;;;2097843;28;20511;-64
2021/06/18 05:17:20;;;;;;;6.80;3.85;;;16.50;99.90;;;;;;2097153;28;20027;-64
2021/06/18 05:18:21;;;;;;;5.30;3.35;;;16.40;99.90;;;;;;2093504;28;20033;-64
2021/06/18 05:19:22;;;;;;;8.35;4.05;;;16.40;99.90;;;;;;2089823;28;20029;-65
2021/06/18 05:20:22;;;;;;;7.53;3.60;;;16.40;99.90;;;;;;2090036;28;20022;-65
2021/06/18 05:21:23;;;;;;;13.48;4.20;;;16.40;99.90;;;;;;2089469;28;20025;-64
2021/06/18 05:22:24;;;;;;;6.35;3.33;;;16.40;99.90;;;;;;2088661;28;20021;-64
2021/06/18 05:23:25;;;;;;;8.30;3.63;;;16.50;99.90;;;;;;2089550;28;20022;-64